sensor_id;sensor_type;location;lat;lon;timestamp;temperature;humidity
796;DHT22;381;48.770;9.188;2024-03-07T00:02:50;9.20;99.90
796;DHT22;381;48.770;9.188;2024-03-07T00:07:54;9.20;99.90
796;DHT22;381;48.770;9.188;2024-03-07T00:12:56;9.10;99.90
796;DHT22;381;48.770;9.188;2024-03-07T00:17:58;9.10;99.90
796;DHT22;381;48.770;9.188;2024-03-07T00:23:03;9.10;99.90
796;DHT22;381;48.770;9.188;2024-03-07T00:28:05;9.00;99.90
796;DHT22;381;48.770;9.188;2024-03-07T00:33:08;9.00;99.90
796;DHT22;381;48.770;9.188;2024-03-07T00:38:11;9.00;99.90
796;DHT22;381;48.770;9.188;2024-03-07T00:43:14;9.00;99.90
796;DHT22;381;48.770;9.188;2024-03-07T00:48:17;9.00;99.90
796;DHT22;381;48.770;9.188;2024-03-07T00:53:20;9.00;99.90
796;DHT22;381;48.770;9.188;2024-03-07T00:58:23;8.90;99.90
796;DHT22;381;48.770;9.188;2024-03-07T01:03:25;8.90;99.90
796;DHT22;381;48.770;9.188;2024-03-07T01:08:29;8.90;99.90
796;DHT22;381;48.770;9.188;2024-03-07T01:13:33;9.00;99.90
796;DHT22;381;48.770;9.188;2024-03-07T01:18:36;9.00;99.90
796;DHT22;381;48.770;9.188;2024-03-07T01:23:40;8.90;99.90
796;DHT22;381;48.770;9.188;2024-03-07T01:28:43;8.90;99.90
796;DHT22;381;48.770;9.188;2024-03-07T01:33:45;8.80;99.90
796;DHT22;381;48.770;9.188;2024-03-07T01:38:49;8.70;99.90
796;DHT22;381;48.770;9.188;2024-03-07T01:43:52;8.60;99.90
796;DHT22;381;48.770;9.188;2024-03-07T01:48:54;8.60;99.90
796;DHT22;381;48.770;9.188;2024-03-07T01:53:59;8.50;99.90
796;DHT22;381;48.770;9.188;2024-03-07T01:59:01;8.40;99.90
796;DHT22;381;48.770;9.188;2024-03-07T02:04:06;8.30;99.90
796;DHT22;381;48.770;9.188;2024-03-07T02:09:10;8.20;99.90
796;DHT22;381;48.770;9.188;2024-03-07T02:14:12;8.10;99.90
796;DHT22;381;48.770;9.188;2024-03-07T02:19:15;7.90;99.90
796;DHT22;381;48.770;9.188;2024-03-07T02:24:20;7.80;99.90
796;DHT22;381;48.770;9.188;2024-03-07T02:29:22;7.70;99.90
796;DHT22;381;48.770;9.188;2024-03-07T02:34:25;7.70;99.90
796;DHT22;381;48.770;9.188;2024-03-07T02:39:29;7.60;99.90
796;DHT22;381;48.770;9.188;2024-03-07T02:44:32;7.40;99.90
796;DHT22;381;48.770;9.188;2024-03-07T02:49:34;7.30;99.90
796;DHT22;381;48.770;9.188;2024-03-07T02:54:38;7.20;99.90
796;DHT22;381;48.770;9.188;2024-03-07T02:59:41;7.10;99.90
796;DHT22;381;48.770;9.188;2024-03-07T03:04:44;7.00;99.90
796;DHT22;381;48.770;9.188;2024-03-07T03:09:47;6.90;99.90
796;DHT22;381;48.770;9.188;2024-03-07T03:14:50;6.80;99.90
796;DHT22;381;48.770;9.188;2024-03-07T03:19:54;6.70;99.90
796;DHT22;381;48.770;9.188;2024-03-07T03:24:58;6.60;99.90
796;DHT22;381;48.770;9.188;2024-03-07T03:30:00;6.50;99.90
796;DHT22;381;48.770;9.188;2024-03-07T03:35:06;6.50;99.90
796;DHT22;381;48.770;9.188;2024-03-07T03:40:12;6.40;99.90
796;DHT22;381;48.770;9.188;2024-03-07T03:45:15;6.30;99.90
796;DHT22;381;48.770;9.188;2024-03-07T03:50:17;6.20;99.90
796;DHT22;381;48.770;9.188;2024-03-07T03:55:21;6.10;99.90
796;DHT22;381;48.770;9.188;2024-03-07T04:00:23;6.00;99.90
796;DHT22;381;48.770;9.188;2024-03-07T04:05:26;5.90;99.90
796;DHT22;381;48.770;9.188;2024-03-07T04:10:30;5.90;99.90
796;DHT22;381;48.770;9.188;2024-03-07T04:15:32;5.90;99.90
796;DHT22;381;48.770;9.188;2024-03-07T04:20:34;5.80;99.90
796;DHT22;381;48.770;9.188;2024-03-07T04:25:38;5.80;99.90
796;DHT22;381;48.770;9.188;2024-03-07T04:30:40;5.70;99.90
796;DHT22;381;48.770;9.188;2024-03-07T04:35:44;5.70;99.90
796;DHT22;381;48.770;9.188;2024-03-07T04:40:47;5.60;99.90
796;DHT22;381;48.770;9.188;2024-03-07T04:45:50;5.60;99.90
796;DHT22;381;48.770;9.188;2024-03-07T04:50:52;5.70;99.90
796;DHT22;381;48.770;9.188;2024-03-07T04:55:56;5.60;99.90
796;DHT22;381;48.770;9.188;2024-03-07T05:00:58;5.60;99.90
796;DHT22;381;48.770;9.188;2024-03-07T05:06:01;5.60;99.90
796;DHT22;381;48.770;9.188;2024-03-07T05:11:05;5.50;99.90
796;DHT22;381;48.770;9.188;2024-03-07T05:16:07;5.50;99.90
796;DHT22;381;48.770;9.188;2024-03-07T05:21:09;5.40;99.90
796;DHT22;381;48.770;9.188;2024-03-07T05:26:27;5.40;99.90
796;DHT22;381;48.770;9.188;2024-03-07T05:31:29;5.30;99.90
796;DHT22;381;48.770;9.188;2024-03-07T05:36:35;5.20;99.90
796;DHT22;381;48.770;9.188;2024-03-07T05:41:46;5.20;99.90
796;DHT22;381;48.770;9.188;2024-03-07T05:46:49;5.10;99.90
796;DHT22;381;48.770;9.188;2024-03-07T05:51:51;5.10;99.90
796;DHT22;381;48.770;9.188;2024-03-07T05:56:55;5.00;99.90
796;DHT22;381;48.770;9.188;2024-03-07T06:07:00;5.00;99.90
796;DHT22;381;48.770;9.188;2024-03-07T06:12:04;4.90;99.90
796;DHT22;381;48.770;9.188;2024-03-07T06:17:09;4.90;99.90
796;DHT22;381;48.770;9.188;2024-03-07T06:22:11;4.90;99.90
796;DHT22;381;48.770;9.188;2024-03-07T06:27:16;4.90;99.90
796;DHT22;381;48.770;9.188;2024-03-07T06:32:28;4.90;99.90
796;DHT22;381;48.770;9.188;2024-03-07T06:37:30;5.00;99.90
796;DHT22;381;48.770;9.188;2024-03-07T06:42:34;4.90;99.90
796;DHT22;381;48.770;9.188;2024-03-07T06:47:37;5.00;99.90
796;DHT22;381;48.770;9.188;2024-03-07T06:52:40;5.00;99.90
796;DHT22;381;48.770;9.188;2024-03-07T06:57:44;5.00;99.90
796;DHT22;381;48.770;9.188;2024-03-07T07:02:47;5.00;99.90
796;DHT22;381;48.770;9.188;2024-03-07T07:07:49;5.00;99.90
796;DHT22;381;48.770;9.188;2024-03-07T07:12:53;5.10;99.90
796;DHT22;381;48.770;9.188;2024-03-07T07:17:56;5.20;99.90
796;DHT22;381;48.770;9.188;2024-03-07T07:22:59;5.30;99.90
796;DHT22;381;48.770;9.188;2024-03-07T07:28:05;5.30;99.90
796;DHT22;381;48.770;9.188;2024-03-07T07:33:09;5.40;99.90
796;DHT22;381;48.770;9.188;2024-03-07T07:38:11;5.50;99.90
796;DHT22;381;48.770;9.188;2024-03-07T07:43:17;5.70;99.90
796;DHT22;381;48.770;9.188;2024-03-07T07:48:20;5.80;99.90
796;DHT22;381;48.770;9.188;2024-03-07T07:53:22;6.00;99.90
796;DHT22;381;48.770;9.188;2024-03-07T07:58:26;6.20;99.90
796;DHT22;381;48.770;9.188;2024-03-07T08:03:28;6.40;99.90
796;DHT22;381;48.770;9.188;2024-03-07T08:08:31;6.50;99.90
796;DHT22;381;48.770;9.188;2024-03-07T08:13:35;6.60;99.90
796;DHT22;381;48.770;9.188;2024-03-07T08:18:38;6.60;99.90
796;DHT22;381;48.770;9.188;2024-03-07T08:23:40;6.70;99.90
796;DHT22;381;48.770;9.188;2024-03-07T08:28:44;6.90;99.90
796;DHT22;381;48.770;9.188;2024-03-07T08:33:48;7.10;99.90
796;DHT22;381;48.770;9.188;2024-03-07T08:38:50;7.30;99.90
796;DHT22;381;48.770;9.188;2024-03-07T08:43:54;7.40;99.00
796;DHT22;381;48.770;9.188;2024-03-07T08:48:57;7.50;99.20
796;DHT22;381;48.770;9.188;2024-03-07T08:53:59;7.60;98.40
796;DHT22;381;48.770;9.188;2024-03-07T08:59:03;7.70;98.80
796;DHT22;381;48.770;9.188;2024-03-07T09:04:05;7.80;98.70
796;DHT22;381;48.770;9.188;2024-03-07T09:09:08;7.90;97.80
796;DHT22;381;48.770;9.188;2024-03-07T09:14:12;8.00;98.40
796;DHT22;381;48.770;9.188;2024-03-07T09:19:15;8.10;98.70
796;DHT22;381;48.770;9.188;2024-03-07T09:24:21;8.30;99.20
796;DHT22;381;48.770;9.188;2024-03-07T09:29:25;8.50;98.70
796;DHT22;381;48.770;9.188;2024-03-07T09:34:27;8.70;98.60
796;DHT22;381;48.770;9.188;2024-03-07T09:39:31;8.80;97.80
796;DHT22;381;48.770;9.188;2024-03-07T09:44:38;8.80;98.00
796;DHT22;381;48.770;9.188;2024-03-07T09:49:42;8.90;98.20
796;DHT22;381;48.770;9.188;2024-03-07T09:54:45;9.10;98.30
796;DHT22;381;48.770;9.188;2024-03-07T09:59:50;9.10;98.30
796;DHT22;381;48.770;9.188;2024-03-07T10:04:56;9.20;98.20
796;DHT22;381;48.770;9.188;2024-03-07T10:09:59;9.30;97.70
796;DHT22;381;48.770;9.188;2024-03-07T10:15:10;9.40;98.10
796;DHT22;381;48.770;9.188;2024-03-07T10:20:16;9.50;98.10
796;DHT22;381;48.770;9.188;2024-03-07T10:25:21;9.60;97.90
796;DHT22;381;48.770;9.188;2024-03-07T10:30:26;9.60;97.60
796;DHT22;381;48.770;9.188;2024-03-07T10:35:29;9.70;97.50
796;DHT22;381;48.770;9.188;2024-03-07T10:40:32;9.80;97.00
796;DHT22;381;48.770;9.188;2024-03-07T10:45:44;9.70;96.10
796;DHT22;381;48.770;9.188;2024-03-07T10:50:55;9.70;97.20
796;DHT22;381;48.770;9.188;2024-03-07T10:56:15;9.80;96.60
796;DHT22;381;48.770;9.188;2024-03-07T11:01:23;9.90;97.00
796;DHT22;381;48.770;9.188;2024-03-07T11:06:27;10.00;97.10
796;DHT22;381;48.770;9.188;2024-03-07T11:11:31;10.10;95.10
796;DHT22;381;48.770;9.188;2024-03-07T11:16:35;10.10;95.10
796;DHT22;381;48.770;9.188;2024-03-07T11:21:43;10.10;94.60
796;DHT22;381;48.770;9.188;2024-03-07T11:26:47;10.10;95.40
796;DHT22;381;48.770;9.188;2024-03-07T11:31:53;10.20;95.30
796;DHT22;381;48.770;9.188;2024-03-07T11:36:55;10.20;95.90
796;DHT22;381;48.770;9.188;2024-03-07T11:42:01;10.30;95.80
796;DHT22;381;48.770;9.188;2024-03-07T11:47:05;10.40;94.80
796;DHT22;381;48.770;9.188;2024-03-07T11:52:10;10.50;95.00
796;DHT22;381;48.770;9.188;2024-03-07T11:57:15;10.50;95.00
796;DHT22;381;48.770;9.188;2024-03-07T12:02:21;10.40;94.30
796;DHT22;381;48.770;9.188;2024-03-07T12:07:23;10.40;95.10
796;DHT22;381;48.770;9.188;2024-03-07T12:12:27;10.40;95.60
796;DHT22;381;48.770;9.188;2024-03-07T12:17:31;10.40;95.00
796;DHT22;381;48.770;9.188;2024-03-07T12:22:36;10.40;95.60
796;DHT22;381;48.770;9.188;2024-03-07T12:27:38;10.30;94.90
796;DHT22;381;48.770;9.188;2024-03-07T12:32:47;10.30;95.00
796;DHT22;381;48.770;9.188;2024-03-07T12:37:50;10.20;95.50
796;DHT22;381;48.770;9.188;2024-03-07T12:42:52;10.20;95.30
796;DHT22;381;48.770;9.188;2024-03-07T12:47:56;10.00;95.20
796;DHT22;381;48.770;9.188;2024-03-07T12:53:05;10.00;95.40
796;DHT22;381;48.770;9.188;2024-03-07T12:58:13;10.10;95.50
796;DHT22;381;48.770;9.188;2024-03-07T13:03:17;10.20;95.60
796;DHT22;381;48.770;9.188;2024-03-07T13:08:20;10.20;95.80
796;DHT22;381;48.770;9.188;2024-03-07T13:13:26;10.30;96.10
796;DHT22;381;48.770;9.188;2024-03-07T13:18:30;10.40;95.40
796;DHT22;381;48.770;9.188;2024-03-07T13:23:37;10.40;95.20
796;DHT22;381;48.770;9.188;2024-03-07T13:28:40;10.40;94.80
796;DHT22;381;48.770;9.188;2024-03-07T13:33:45;10.40;95.40
796;DHT22;381;48.770;9.188;2024-03-07T13:38:52;10.40;95.50
796;DHT22;381;48.770;9.188;2024-03-07T13:43:55;10.40;95.80
796;DHT22;381;48.770;9.188;2024-03-07T13:48:59;10.40;95.90
796;DHT22;381;48.770;9.188;2024-03-07T13:54:08;10.30;95.60
796;DHT22;381;48.770;9.188;2024-03-07T13:59:50;10.30;95.50
796;DHT22;381;48.770;9.188;2024-03-07T14:05:23;10.20;95.60
796;DHT22;381;48.770;9.188;2024-03-07T14:22:02;10.30;95.10
796;DHT22;381;48.770;9.188;2024-03-07T14:27:27;10.40;94.60
796;DHT22;381;48.770;9.188;2024-03-07T14:32:32;10.30;94.70
796;DHT22;381;48.770;9.188;2024-03-07T14:37:39;10.30;95.30
796;DHT22;381;48.770;9.188;2024-03-07T14:42:48;10.40;95.00
796;DHT22;381;48.770;9.188;2024-03-07T14:47:51;10.50;93.90
796;DHT22;381;48.770;9.188;2024-03-07T14:52:55;10.50;94.50
796;DHT22;381;48.770;9.188;2024-03-07T14:57:58;10.40;94.90
796;DHT22;381;48.770;9.188;2024-03-07T15:03:01;10.40;94.70
796;DHT22;381;48.770;9.188;2024-03-07T15:08:05;10.40;94.90
796;DHT22;381;48.770;9.188;2024-03-07T15:13:08;10.50;94.70
796;DHT22;381;48.770;9.188;2024-03-07T15:18:13;10.50;93.40
796;DHT22;381;48.770;9.188;2024-03-07T15:23:17;10.40;94.30
796;DHT22;381;48.770;9.188;2024-03-07T15:28:19;10.40;94.20
796;DHT22;381;48.770;9.188;2024-03-07T15:33:22;10.30;94.00
796;DHT22;381;48.770;9.188;2024-03-07T15:38:27;10.20;94.40
796;DHT22;381;48.770;9.188;2024-03-07T15:43:29;10.20;94.60
796;DHT22;381;48.770;9.188;2024-03-07T15:48:32;10.10;94.20
796;DHT22;381;48.770;9.188;2024-03-07T15:53:36;10.10;94.10
796;DHT22;381;48.770;9.188;2024-03-07T15:58:38;10.00;94.50
796;DHT22;381;48.770;9.188;2024-03-07T16:03:42;10.10;94.70
796;DHT22;381;48.770;9.188;2024-03-07T16:08:47;10.10;94.30
796;DHT22;381;48.770;9.188;2024-03-07T16:13:49;10.10;93.90
796;DHT22;381;48.770;9.188;2024-03-07T16:18:52;10.10;94.40
796;DHT22;381;48.770;9.188;2024-03-07T16:23:56;10.10;95.00
796;DHT22;381;48.770;9.188;2024-03-07T16:28:58;10.00;94.50
796;DHT22;381;48.770;9.188;2024-03-07T16:34:01;10.00;94.50
796;DHT22;381;48.770;9.188;2024-03-07T16:39:05;10.00;94.30
796;DHT22;381;48.770;9.188;2024-03-07T16:44:13;10.00;94.10
796;DHT22;381;48.770;9.188;2024-03-07T16:49:15;9.90;95.20
796;DHT22;381;48.770;9.188;2024-03-07T16:54:19;9.90;95.70
796;DHT22;381;48.770;9.188;2024-03-07T16:59:23;9.90;95.90
796;DHT22;381;48.770;9.188;2024-03-07T17:04:25;9.80;95.20
796;DHT22;381;48.770;9.188;2024-03-07T17:09:29;9.80;95.30
796;DHT22;381;48.770;9.188;2024-03-07T17:14:33;9.80;95.00
796;DHT22;381;48.770;9.188;2024-03-07T17:19:36;9.70;95.30
796;DHT22;381;48.770;9.188;2024-03-07T17:24:40;9.70;95.40
796;DHT22;381;48.770;9.188;2024-03-07T17:29:44;9.70;95.50
796;DHT22;381;48.770;9.188;2024-03-07T17:34:47;9.70;95.50
796;DHT22;381;48.770;9.188;2024-03-07T17:39:51;9.70;95.10
796;DHT22;381;48.770;9.188;2024-03-07T17:44:54;9.60;95.00
796;DHT22;381;48.770;9.188;2024-03-07T17:49:57;9.60;95.50
796;DHT22;381;48.770;9.188;2024-03-07T17:55:01;9.60;95.90
796;DHT22;381;48.770;9.188;2024-03-07T18:00:09;9.60;95.40
796;DHT22;381;48.770;9.188;2024-03-07T18:05:17;9.50;95.30
796;DHT22;381;48.770;9.188;2024-03-07T18:10:22;9.50;95.80
796;DHT22;381;48.770;9.188;2024-03-07T18:15:24;9.50;95.90
796;DHT22;381;48.770;9.188;2024-03-07T18:20:28;9.50;96.00
796;DHT22;381;48.770;9.188;2024-03-07T18:25:32;9.50;95.90
796;DHT22;381;48.770;9.188;2024-03-07T18:30:36;9.50;95.70
796;DHT22;381;48.770;9.188;2024-03-07T18:35:39;9.50;95.70
796;DHT22;381;48.770;9.188;2024-03-07T18:40:45;9.40;95.60
796;DHT22;381;48.770;9.188;2024-03-07T18:45:50;9.40;95.80
796;DHT22;381;48.770;9.188;2024-03-07T18:50:52;9.40;95.90
796;DHT22;381;48.770;9.188;2024-03-07T18:55:56;9.30;96.30
796;DHT22;381;48.770;9.188;2024-03-07T19:00:58;9.30;96.20
796;DHT22;381;48.770;9.188;2024-03-07T19:06:05;9.30;96.80
796;DHT22;381;48.770;9.188;2024-03-07T19:11:10;9.20;96.30
796;DHT22;381;48.770;9.188;2024-03-07T19:16:14;9.20;96.10
796;DHT22;381;48.770;9.188;2024-03-07T19:21:16;9.10;96.40
796;DHT22;381;48.770;9.188;2024-03-07T19:26:23;9.10;96.90
796;DHT22;381;48.770;9.188;2024-03-07T19:31:25;9.10;97.20
796;DHT22;381;48.770;9.188;2024-03-07T19:36:31;9.00;97.20
796;DHT22;381;48.770;9.188;2024-03-07T19:41:35;9.10;97.40
796;DHT22;381;48.770;9.188;2024-03-07T19:46:39;9.10;97.30
796;DHT22;381;48.770;9.188;2024-03-07T19:51:44;9.10;97.30
796;DHT22;381;48.770;9.188;2024-03-07T19:56:48;9.10;97.50
796;DHT22;381;48.770;9.188;2024-03-07T20:01:51;9.10;97.50
796;DHT22;381;48.770;9.188;2024-03-07T20:06:53;9.10;97.30
796;DHT22;381;48.770;9.188;2024-03-07T20:11:57;9.10;97.30
796;DHT22;381;48.770;9.188;2024-03-07T20:17:00;9.10;97.70
796;DHT22;381;48.770;9.188;2024-03-07T20:22:02;9.10;97.60
796;DHT22;381;48.770;9.188;2024-03-07T20:27:09;9.10;97.60
796;DHT22;381;48.770;9.188;2024-03-07T20:32:12;9.00;97.70
796;DHT22;381;48.770;9.188;2024-03-07T20:37:14;9.10;97.50
796;DHT22;381;48.770;9.188;2024-03-07T20:42:18;9.00;97.00
796;DHT22;381;48.770;9.188;2024-03-07T20:47:21;8.90;97.00
796;DHT22;381;48.770;9.188;2024-03-07T20:52:24;8.90;97.00
796;DHT22;381;48.770;9.188;2024-03-07T20:57:31;8.80;97.30
796;DHT22;381;48.770;9.188;2024-03-07T21:02:33;8.80;97.60
796;DHT22;381;48.770;9.188;2024-03-07T21:07:38;8.70;97.40
796;DHT22;381;48.770;9.188;2024-03-07T21:12:43;8.60;97.40
796;DHT22;381;48.770;9.188;2024-03-07T21:17:45;8.60;97.30
796;DHT22;381;48.770;9.188;2024-03-07T21:22:48;8.40;97.30
796;DHT22;381;48.770;9.188;2024-03-07T21:27:53;8.40;97.40
796;DHT22;381;48.770;9.188;2024-03-07T21:32:55;8.30;97.60
796;DHT22;381;48.770;9.188;2024-03-07T21:38:00;8.20;97.70
796;DHT22;381;48.770;9.188;2024-03-07T21:43:04;8.10;97.30
796;DHT22;381;48.770;9.188;2024-03-07T21:48:07;8.00;97.20
796;DHT22;381;48.770;9.188;2024-03-07T21:53:10;7.90;97.40
796;DHT22;381;48.770;9.188;2024-03-07T21:58:14;7.90;97.50
796;DHT22;381;48.770;9.188;2024-03-07T22:03:17;7.80;97.70
796;DHT22;381;48.770;9.188;2024-03-07T22:08:20;7.70;97.40
796;DHT22;381;48.770;9.188;2024-03-07T22:13:24;7.70;97.40
796;DHT22;381;48.770;9.188;2024-03-07T22:18:26;7.50;97.30
796;DHT22;381;48.770;9.188;2024-03-07T22:23:29;7.40;97.40
796;DHT22;381;48.770;9.188;2024-03-07T22:28:35;7.20;97.40
796;DHT22;381;48.770;9.188;2024-03-07T22:33:38;7.10;97.80
796;DHT22;381;48.770;9.188;2024-03-07T22:38:40;7.00;97.60
796;DHT22;381;48.770;9.188;2024-03-07T22:43:44;6.90;97.60
796;DHT22;381;48.770;9.188;2024-03-07T22:48:46;6.80;97.80
796;DHT22;381;48.770;9.188;2024-03-07T22:53:49;6.70;97.80
796;DHT22;381;48.770;9.188;2024-03-07T22:58:53;6.60;98.10
796;DHT22;381;48.770;9.188;2024-03-07T23:03:56;6.50;97.90
796;DHT22;381;48.770;9.188;2024-03-07T23:09:01;6.50;97.70
796;DHT22;381;48.770;9.188;2024-03-07T23:14:05;6.40;97.90
796;DHT22;381;48.770;9.188;2024-03-07T23:19:08;6.40;97.80
796;DHT22;381;48.770;9.188;2024-03-07T23:24:13;6.30;97.90
796;DHT22;381;48.770;9.188;2024-03-07T23:29:17;6.20;97.70
796;DHT22;381;48.770;9.188;2024-03-07T23:34:19;6.10;97.80
796;DHT22;381;48.770;9.188;2024-03-07T23:39:22;6.00;98.00
796;DHT22;381;48.770;9.188;2024-03-07T23:44:25;6.00;98.10
796;DHT22;381;48.770;9.188;2024-03-07T23:49:28;5.90;97.70
796;DHT22;381;48.770;9.188;2024-03-07T23:54:30;5.80;97.60
796;DHT22;381;48.770;9.188;2024-03-07T23:59:34;5.80;97.60
